Terminal Aerodrome Forecast
Issued by NWS Wichita, KS

Home | Current Version | Previous Version | Graphics & Text | Print | Product List | Glossary On
Versions: 1 2 3 4 5 6 7 8 9 10 11 12 13 14 15 16
000
FTUS43 KICT 021731 CCA
TAFICT
TAF COR
KICT 021731Z 0218/0318 17015G22KT P6SM FEW040
     FM030100 17015KT P6SM SCT250
     FM031000 15010KT P6SM SCT025
     FM031400 18015G22KT P6SM FEW035=

USA.gov is the U.S. government's official web portal to all federal, state and local government web resources and services.